sensor_id;sensor_type;location;lat;lon;timestamp;temperature;humidity
39825;DHT22;25503;52.532;13.640;2023-06-10T00:01:22;15.80;99.90
39825;DHT22;25503;52.532;13.640;2023-06-10T00:03:50;15.70;99.90
39825;DHT22;25503;52.532;13.640;2023-06-10T00:06:16;15.70;99.90
39825;DHT22;25503;52.532;13.640;2023-06-10T00:08:41;15.60;99.90
39825;DHT22;25503;52.532;13.640;2023-06-10T00:11:07;15.60;99.90
39825;DHT22;25503;52.532;13.640;2023-06-10T00:13:33;15.60;99.90
39825;DHT22;25503;52.532;13.640;2023-06-10T00:15:58;15.60;99.90
39825;DHT22;25503;52.532;13.640;2023-06-10T00:18:24;15.60;99.90
39825;DHT22;25503;52.532;13.640;2023-06-10T00:20:52;15.50;99.90
39825;DHT22;25503;52.532;13.640;2023-06-10T00:23:21;15.50;99.90
39825;DHT22;25503;52.532;13.640;2023-06-10T00:25:46;15.50;99.90
39825;DHT22;25503;52.532;13.640;2023-06-10T00:28:12;15.40;99.90
39825;DHT22;25503;52.532;13.640;2023-06-10T00:30:38;15.40;99.90
39825;DHT22;25503;52.532;13.640;2023-06-10T00:33:04;15.40;99.90
39825;DHT22;25503;52.532;13.640;2023-06-10T00:35:30;15.40;99.90
39825;DHT22;25503;52.532;13.640;2023-06-10T00:37:55;15.30;99.90
39825;DHT22;25503;52.532;13.640;2023-06-10T00:40:21;15.30;99.90
39825;DHT22;25503;52.532;13.640;2023-06-10T00:42:46;15.30;99.90
39825;DHT22;25503;52.532;13.640;2023-06-10T00:45:12;15.30;99.90
39825;DHT22;25503;52.532;13.640;2023-06-10T00:47:38;15.20;99.90
39825;DHT22;25503;52.532;13.640;2023-06-10T00:50:05;15.20;99.90
39825;DHT22;25503;52.532;13.640;2023-06-10T00:52:31;15.20;99.90
39825;DHT22;25503;52.532;13.640;2023-06-10T00:54:57;15.20;99.90
39825;DHT22;25503;52.532;13.640;2023-06-10T00:57:22;15.20;99.90
39825;DHT22;25503;52.532;13.640;2023-06-10T00:59:49;15.10;99.90
39825;DHT22;25503;52.532;13.640;2023-06-10T01:02:15;15.10;99.90
39825;DHT22;25503;52.532;13.640;2023-06-10T01:04:40;15.10;99.90
39825;DHT22;25503;52.532;13.640;2023-06-10T01:07:14;15.10;99.90
39825;DHT22;25503;52.532;13.640;2023-06-10T01:09:53;15.10;99.90
39825;DHT22;25503;52.532;13.640;2023-06-10T01:12:52;15.00;99.90
39825;DHT22;25503;52.532;13.640;2023-06-10T01:15:16;15.00;99.90
39825;DHT22;25503;52.532;13.640;2023-06-10T01:18:02;15.00;99.90
39825;DHT22;25503;52.532;13.640;2023-06-10T01:20:29;15.00;99.90
39825;DHT22;25503;52.532;13.640;2023-06-10T01:22:58;14.90;99.90
39825;DHT22;25503;52.532;13.640;2023-06-10T01:25:24;15.00;99.90
39825;DHT22;25503;52.532;13.640;2023-06-10T01:28:04;14.90;99.90
39825;DHT22;25503;52.532;13.640;2023-06-10T01:30:37;14.90;99.90
39825;DHT22;25503;52.532;13.640;2023-06-10T01:33:07;14.80;99.90
39825;DHT22;25503;52.532;13.640;2023-06-10T01:35:37;14.80;99.90
39825;DHT22;25503;52.532;13.640;2023-06-10T01:38:03;14.80;99.90
39825;DHT22;25503;52.532;13.640;2023-06-10T01:40:30;14.70;99.90
39825;DHT22;25503;52.532;13.640;2023-06-10T01:42:56;14.70;99.90
39825;DHT22;25503;52.532;13.640;2023-06-10T01:45:22;14.70;99.90
39825;DHT22;25503;52.532;13.640;2023-06-10T01:47:47;14.70;99.90
39825;DHT22;25503;52.532;13.640;2023-06-10T01:50:13;14.60;99.90
39825;DHT22;25503;52.532;13.640;2023-06-10T01:52:38;14.60;99.90
39825;DHT22;25503;52.532;13.640;2023-06-10T01:55:04;14.60;99.90
39825;DHT22;25503;52.532;13.640;2023-06-10T01:57:30;14.60;99.90
39825;DHT22;25503;52.532;13.640;2023-06-10T01:59:55;14.50;99.90
39825;DHT22;25503;52.532;13.640;2023-06-10T02:02:21;14.60;99.90
39825;DHT22;25503;52.532;13.640;2023-06-10T02:04:47;14.50;99.90
39825;DHT22;25503;52.532;13.640;2023-06-10T02:07:13;14.50;99.90
39825;DHT22;25503;52.532;13.640;2023-06-10T02:09:38;14.50;99.90
39825;DHT22;25503;52.532;13.640;2023-06-10T02:12:04;14.50;99.90
39825;DHT22;25503;52.532;13.640;2023-06-10T02:14:32;14.50;99.90
39825;DHT22;25503;52.532;13.640;2023-06-10T02:16:58;14.50;99.90
39825;DHT22;25503;52.532;13.640;2023-06-10T02:19:23;14.40;99.90
39825;DHT22;25503;52.532;13.640;2023-06-10T02:21:52;14.40;99.90
39825;DHT22;25503;52.532;13.640;2023-06-10T02:24:18;14.40;99.90
39825;DHT22;25503;52.532;13.640;2023-06-10T02:26:44;14.30;99.90
39825;DHT22;25503;52.532;13.640;2023-06-10T02:29:10;14.30;99.90
39825;DHT22;25503;52.532;13.640;2023-06-10T02:31:36;14.30;99.90
39825;DHT22;25503;52.532;13.640;2023-06-10T02:34:03;14.20;99.90
39825;DHT22;25503;52.532;13.640;2023-06-10T02:36:29;14.20;99.90
39825;DHT22;25503;52.532;13.640;2023-06-10T02:38:54;14.20;99.90
39825;DHT22;25503;52.532;13.640;2023-06-10T02:41:20;14.20;99.90
39825;DHT22;25503;52.532;13.640;2023-06-10T02:43:47;14.20;99.90
39825;DHT22;25503;52.532;13.640;2023-06-10T02:46:13;14.20;99.90
39825;DHT22;25503;52.532;13.640;2023-06-10T02:48:42;14.10;99.90
39825;DHT22;25503;52.532;13.640;2023-06-10T02:51:09;14.10;99.90
39825;DHT22;25503;52.532;13.640;2023-06-10T02:53:35;14.10;99.90
39825;DHT22;25503;52.532;13.640;2023-06-10T02:56:01;14.10;99.90
39825;DHT22;25503;52.532;13.640;2023-06-10T02:58:27;14.10;99.90
39825;DHT22;25503;52.532;13.640;2023-06-10T03:00:52;14.00;99.90
39825;DHT22;25503;52.532;13.640;2023-06-10T03:03:18;14.00;99.90
39825;DHT22;25503;52.532;13.640;2023-06-10T03:05:44;14.00;99.90
39825;DHT22;25503;52.532;13.640;2023-06-10T03:08:09;14.00;99.90
39825;DHT22;25503;52.532;13.640;2023-06-10T03:10:35;14.00;99.90
39825;DHT22;25503;52.532;13.640;2023-06-10T03:13:00;14.00;99.90
39825;DHT22;25503;52.532;13.640;2023-06-10T03:15:26;14.00;99.90
39825;DHT22;25503;52.532;13.640;2023-06-10T03:17:54;14.00;99.90
39825;DHT22;25503;52.532;13.640;2023-06-10T03:20:20;14.00;99.90
39825;DHT22;25503;52.532;13.640;2023-06-10T03:22:47;14.00;99.90
39825;DHT22;25503;52.532;13.640;2023-06-10T03:25:12;14.00;99.90
39825;DHT22;25503;52.532;13.640;2023-06-10T03:27:41;13.90;99.90
39825;DHT22;25503;52.532;13.640;2023-06-10T03:30:07;13.90;99.90
39825;DHT22;25503;52.532;13.640;2023-06-10T03:32:34;14.00;99.90
39825;DHT22;25503;52.532;13.640;2023-06-10T03:35:00;13.90;99.90
39825;DHT22;25503;52.532;13.640;2023-06-10T03:37:26;14.00;99.90
39825;DHT22;25503;52.532;13.640;2023-06-10T03:39:52;13.90;99.90
39825;DHT22;25503;52.532;13.640;2023-06-10T03:42:17;13.90;99.90
39825;DHT22;25503;52.532;13.640;2023-06-10T03:44:43;14.00;99.90
39825;DHT22;25503;52.532;13.640;2023-06-10T03:47:08;14.00;99.90
39825;DHT22;25503;52.532;13.640;2023-06-10T03:49:34;14.00;99.90
39825;DHT22;25503;52.532;13.640;2023-06-10T03:52:01;14.00;99.90
39825;DHT22;25503;52.532;13.640;2023-06-10T03:54:27;14.00;99.90
39825;DHT22;25503;52.532;13.640;2023-06-10T03:56:53;14.00;99.90
39825;DHT22;25503;52.532;13.640;2023-06-10T03:59:18;14.00;99.90
39825;DHT22;25503;52.532;13.640;2023-06-10T04:01:44;14.00;99.90
39825;DHT22;25503;52.532;13.640;2023-06-10T04:04:13;14.10;99.90
39825;DHT22;25503;52.532;13.640;2023-06-10T04:06:40;14.10;99.90
39825;DHT22;25503;52.532;13.640;2023-06-10T04:09:06;14.10;99.90
39825;DHT22;25503;52.532;13.640;2023-06-10T04:11:33;14.10;99.90
39825;DHT22;25503;52.532;13.640;2023-06-10T04:13:58;14.10;99.90
39825;DHT22;25503;52.532;13.640;2023-06-10T04:16:24;14.20;99.90
39825;DHT22;25503;52.532;13.640;2023-06-10T04:18:50;14.20;99.90
39825;DHT22;25503;52.532;13.640;2023-06-10T04:21:16;14.30;99.90
39825;DHT22;25503;52.532;13.640;2023-06-10T04:23:41;14.40;99.90
39825;DHT22;25503;52.532;13.640;2023-06-10T04:26:07;14.40;99.90
39825;DHT22;25503;52.532;13.640;2023-06-10T04:28:33;14.50;99.90
39825;DHT22;25503;52.532;13.640;2023-06-10T04:30:58;14.60;99.90
39825;DHT22;25503;52.532;13.640;2023-06-10T04:33:24;14.70;99.90
39825;DHT22;25503;52.532;13.640;2023-06-10T04:35:50;14.80;99.90
39825;DHT22;25503;52.532;13.640;2023-06-10T04:38:16;14.90;99.90
39825;DHT22;25503;52.532;13.640;2023-06-10T04:40:41;15.00;99.90
39825;DHT22;25503;52.532;13.640;2023-06-10T04:43:07;15.10;99.90
39825;DHT22;25503;52.532;13.640;2023-06-10T04:45:33;15.30;99.90
39825;DHT22;25503;52.532;13.640;2023-06-10T04:47:58;15.40;99.90
39825;DHT22;25503;52.532;13.640;2023-06-10T04:50:24;15.50;99.90
39825;DHT22;25503;52.532;13.640;2023-06-10T04:52:50;15.60;99.90
39825;DHT22;25503;52.532;13.640;2023-06-10T04:55:16;15.70;99.90
39825;DHT22;25503;52.532;13.640;2023-06-10T04:57:41;15.80;99.90
39825;DHT22;25503;52.532;13.640;2023-06-10T05:00:07;15.90;99.90
39825;DHT22;25503;52.532;13.640;2023-06-10T05:02:33;16.00;99.90
39825;DHT22;25503;52.532;13.640;2023-06-10T05:04:59;16.10;99.90
39825;DHT22;25503;52.532;13.640;2023-06-10T05:07:25;16.20;99.90
39825;DHT22;25503;52.532;13.640;2023-06-10T05:09:51;16.30;99.90
39825;DHT22;25503;52.532;13.640;2023-06-10T05:12:16;16.40;99.90
39825;DHT22;25503;52.532;13.640;2023-06-10T05:14:42;16.50;99.90
39825;DHT22;25503;52.532;13.640;2023-06-10T05:17:08;16.60;99.90
39825;DHT22;25503;52.532;13.640;2023-06-10T05:19:33;16.70;99.90
39825;DHT22;25503;52.532;13.640;2023-06-10T05:22:01;16.80;99.90
39825;DHT22;25503;52.532;13.640;2023-06-10T05:24:28;16.80;99.90
39825;DHT22;25503;52.532;13.640;2023-06-10T05:26:53;16.90;99.90
39825;DHT22;25503;52.532;13.640;2023-06-10T05:29:19;16.90;99.90
39825;DHT22;25503;52.532;13.640;2023-06-10T05:31:45;17.00;99.90
39825;DHT22;25503;52.532;13.640;2023-06-10T05:34:10;17.00;99.90
39825;DHT22;25503;52.532;13.640;2023-06-10T05:36:36;17.00;99.90
39825;DHT22;25503;52.532;13.640;2023-06-10T05:39:02;17.00;99.90
39825;DHT22;25503;52.532;13.640;2023-06-10T05:41:28;17.00;99.90
39825;DHT22;25503;52.532;13.640;2023-06-10T05:43:54;17.00;99.90
39825;DHT22;25503;52.532;13.640;2023-06-10T05:46:20;17.00;99.90
39825;DHT22;25503;52.532;13.640;2023-06-10T05:48:46;17.10;99.90
39825;DHT22;25503;52.532;13.640;2023-06-10T05:51:11;17.10;99.90
39825;DHT22;25503;52.532;13.640;2023-06-10T05:53:37;17.10;99.90
39825;DHT22;25503;52.532;13.640;2023-06-10T05:56:03;17.10;99.90
39825;DHT22;25503;52.532;13.640;2023-06-10T05:58:29;17.10;99.90
39825;DHT22;25503;52.532;13.640;2023-06-10T06:00:55;17.20;99.90
39825;DHT22;25503;52.532;13.640;2023-06-10T06:03:20;17.20;99.90
39825;DHT22;25503;52.532;13.640;2023-06-10T06:05:46;17.30;99.90
39825;DHT22;25503;52.532;13.640;2023-06-10T06:08:12;17.30;99.90
39825;DHT22;25503;52.532;13.640;2023-06-10T06:10:38;17.30;99.90
39825;DHT22;25503;52.532;13.640;2023-06-10T06:13:04;17.40;99.90
39825;DHT22;25503;52.532;13.640;2023-06-10T06:15:30;17.50;99.90
39825;DHT22;25503;52.532;13.640;2023-06-10T06:17:55;17.60;99.90
39825;DHT22;25503;52.532;13.640;2023-06-10T06:20:21;17.70;99.90
39825;DHT22;25503;52.532;13.640;2023-06-10T06:22:47;17.80;99.90
39825;DHT22;25503;52.532;13.640;2023-06-10T06:25:13;17.90;99.90
39825;DHT22;25503;52.532;13.640;2023-06-10T06:27:39;18.00;99.90
39825;DHT22;25503;52.532;13.640;2023-06-10T06:30:05;18.10;99.90
39825;DHT22;25503;52.532;13.640;2023-06-10T06:32:30;18.20;99.90
39825;DHT22;25503;52.532;13.640;2023-06-10T06:34:56;18.30;99.90
39825;DHT22;25503;52.532;13.640;2023-06-10T06:37:25;18.40;99.90
39825;DHT22;25503;52.532;13.640;2023-06-10T06:39:54;18.40;99.90
39825;DHT22;25503;52.532;13.640;2023-06-10T06:42:20;18.50;99.90
39825;DHT22;25503;52.532;13.640;2023-06-10T06:44:47;18.60;99.90
39825;DHT22;25503;52.532;13.640;2023-06-10T06:47:13;18.80;99.90
39825;DHT22;25503;52.532;13.640;2023-06-10T06:49:39;18.90;99.90
39825;DHT22;25503;52.532;13.640;2023-06-10T06:52:04;19.00;99.90
39825;DHT22;25503;52.532;13.640;2023-06-10T06:54:31;19.20;99.90
39825;DHT22;25503;52.532;13.640;2023-06-10T06:56:57;19.30;99.90
39825;DHT22;25503;52.532;13.640;2023-06-10T06:59:22;19.50;99.90
39825;DHT22;25503;52.532;13.640;2023-06-10T07:01:48;19.60;99.90
39825;DHT22;25503;52.532;13.640;2023-06-10T07:04:15;19.90;99.90
39825;DHT22;25503;52.532;13.640;2023-06-10T07:06:41;20.00;99.90
39825;DHT22;25503;52.532;13.640;2023-06-10T07:09:07;20.10;99.90
39825;DHT22;25503;52.532;13.640;2023-06-10T07:11:34;20.20;99.90
39825;DHT22;25503;52.532;13.640;2023-06-10T07:14:00;20.30;99.90
39825;DHT22;25503;52.532;13.640;2023-06-10T07:16:27;20.40;99.90
39825;DHT22;25503;52.532;13.640;2023-06-10T07:18:53;20.50;99.90
39825;DHT22;25503;52.532;13.640;2023-06-10T07:21:19;20.60;99.90
39825;DHT22;25503;52.532;13.640;2023-06-10T07:23:45;20.70;99.90
39825;DHT22;25503;52.532;13.640;2023-06-10T07:26:11;20.80;99.90
39825;DHT22;25503;52.532;13.640;2023-06-10T07:28:39;20.90;99.90
39825;DHT22;25503;52.532;13.640;2023-06-10T07:31:05;21.10;99.90
39825;DHT22;25503;52.532;13.640;2023-06-10T07:33:31;21.30;99.90
39825;DHT22;25503;52.532;13.640;2023-06-10T07:35:56;21.50;99.90
39825;DHT22;25503;52.532;13.640;2023-06-10T07:38:22;21.60;99.90
39825;DHT22;25503;52.532;13.640;2023-06-10T07:40:47;21.70;99.90
39825;DHT22;25503;52.532;13.640;2023-06-10T07:43:13;21.80;99.90
39825;DHT22;25503;52.532;13.640;2023-06-10T07:45:42;22.00;99.90
39825;DHT22;25503;52.532;13.640;2023-06-10T07:48:08;22.10;99.90
39825;DHT22;25503;52.532;13.640;2023-06-10T07:50:34;22.20;99.90
39825;DHT22;25503;52.532;13.640;2023-06-10T07:53:00;22.30;99.90
39825;DHT22;25503;52.532;13.640;2023-06-10T07:55:25;22.30;99.90
39825;DHT22;25503;52.532;13.640;2023-06-10T07:57:52;22.30;99.90
39825;DHT22;25503;52.532;13.640;2023-06-10T08:00:18;22.40;99.90
39825;DHT22;25503;52.532;13.640;2023-06-10T08:02:44;22.50;99.90
39825;DHT22;25503;52.532;13.640;2023-06-10T08:05:09;22.50;99.90
39825;DHT22;25503;52.532;13.640;2023-06-10T08:07:35;22.60;99.90
39825;DHT22;25503;52.532;13.640;2023-06-10T08:10:01;22.80;99.90
39825;DHT22;25503;52.532;13.640;2023-06-10T08:12:27;22.90;99.90
39825;DHT22;25503;52.532;13.640;2023-06-10T08:14:52;23.10;99.90
39825;DHT22;25503;52.532;13.640;2023-06-10T08:17:19;23.30;99.90
39825;DHT22;25503;52.532;13.640;2023-06-10T08:19:44;23.50;99.90
39825;DHT22;25503;52.532;13.640;2023-06-10T08:22:10;23.70;99.90
39825;DHT22;25503;52.532;13.640;2023-06-10T08:24:36;23.90;99.90
39825;DHT22;25503;52.532;13.640;2023-06-10T08:27:01;24.10;99.90
39825;DHT22;25503;52.532;13.640;2023-06-10T08:29:27;24.30;99.90
39825;DHT22;25503;52.532;13.640;2023-06-10T08:31:53;24.40;99.90
39825;DHT22;25503;52.532;13.640;2023-06-10T08:34:18;24.60;99.90
39825;DHT22;25503;52.532;13.640;2023-06-10T08:36:44;24.70;99.90
39825;DHT22;25503;52.532;13.640;2023-06-10T08:39:10;24.80;99.90
39825;DHT22;25503;52.532;13.640;2023-06-10T08:41:42;24.80;99.90
39825;DHT22;25503;52.532;13.640;2023-06-10T08:44:22;24.80;99.90
39825;DHT22;25503;52.532;13.640;2023-06-10T08:46:52;24.90;99.90
39825;DHT22;25503;52.532;13.640;2023-06-10T08:49:19;25.00;99.90
39825;DHT22;25503;52.532;13.640;2023-06-10T08:51:59;25.10;99.90
39825;DHT22;25503;52.532;13.640;2023-06-10T08:54:28;25.10;99.90
39825;DHT22;25503;52.532;13.640;2023-06-10T08:56:56;25.20;99.90
39825;DHT22;25503;52.532;13.640;2023-06-10T08:59:24;25.30;99.90
39825;DHT22;25503;52.532;13.640;2023-06-10T09:01:50;25.40;99.90
39825;DHT22;25503;52.532;13.640;2023-06-10T09:04:17;25.40;99.90
39825;DHT22;25503;52.532;13.640;2023-06-10T09:06:44;25.50;99.90
39825;DHT22;25503;52.532;13.640;2023-06-10T09:09:10;25.50;99.90
39825;DHT22;25503;52.532;13.640;2023-06-10T09:11:38;25.50;99.90
39825;DHT22;25503;52.532;13.640;2023-06-10T09:14:03;25.50;99.90
39825;DHT22;25503;52.532;13.640;2023-06-10T09:16:29;25.50;99.90
39825;DHT22;25503;52.532;13.640;2023-06-10T09:18:55;25.50;99.90
39825;DHT22;25503;52.532;13.640;2023-06-10T09:21:24;25.50;99.90
39825;DHT22;25503;52.532;13.640;2023-06-10T09:23:51;25.50;99.90
39825;DHT22;25503;52.532;13.640;2023-06-10T09:26:17;25.50;99.90
39825;DHT22;25503;52.532;13.640;2023-06-10T09:28:58;25.50;99.90
39825;DHT22;25503;52.532;13.640;2023-06-10T09:31:27;25.50;99.90
39825;DHT22;25503;52.532;13.640;2023-06-10T09:33:53;25.40;99.90
39825;DHT22;25503;52.532;13.640;2023-06-10T09:36:25;25.20;99.90
39825;DHT22;25503;52.532;13.640;2023-06-10T09:38:51;25.00;99.90
39825;DHT22;25503;52.532;13.640;2023-06-10T09:41:17;24.80;99.90
39825;DHT22;25503;52.532;13.640;2023-06-10T09:43:44;24.70;99.90
39825;DHT22;25503;52.532;13.640;2023-06-10T09:46:17;24.60;99.90
39825;DHT22;25503;52.532;13.640;2023-06-10T09:48:44;24.50;99.90
39825;DHT22;25503;52.532;13.640;2023-06-10T09:51:10;24.50;99.90
39825;DHT22;25503;52.532;13.640;2023-06-10T09:53:36;24.50;99.90
39825;DHT22;25503;52.532;13.640;2023-06-10T09:56:02;24.50;99.90
39825;DHT22;25503;52.532;13.640;2023-06-10T09:58:40;24.50;99.90
39825;DHT22;25503;52.532;13.640;2023-06-10T10:01:10;24.60;99.90
39825;DHT22;25503;52.532;13.640;2023-06-10T10:03:50;24.70;99.90
39825;DHT22;25503;52.532;13.640;2023-06-10T10:06:17;24.80;99.90
39825;DHT22;25503;52.532;13.640;2023-06-10T10:08:47;25.00;99.90
39825;DHT22;25503;52.532;13.640;2023-06-10T10:11:17;25.20;99.90
39825;DHT22;25503;52.532;13.640;2023-06-10T10:13:45;25.40;99.90
39825;DHT22;25503;52.532;13.640;2023-06-10T10:16:16;25.50;99.90
39825;DHT22;25503;52.532;13.640;2023-06-10T10:18:47;25.60;99.90
39825;DHT22;25503;52.532;13.640;2023-06-10T10:21:16;25.40;99.90
39825;DHT22;25503;52.532;13.640;2023-06-10T10:24:05;25.30;99.90
39825;DHT22;25503;52.532;13.640;2023-06-10T10:26:33;25.00;99.90
39825;DHT22;25503;52.532;13.640;2023-06-10T10:31:49;24.90;99.90
39825;DHT22;25503;52.532;13.640;2023-06-10T10:34:18;24.90;99.90
39825;DHT22;25503;52.532;13.640;2023-06-10T10:36:45;24.90;99.90
39825;DHT22;25503;52.532;13.640;2023-06-10T10:39:11;24.80;99.90
39825;DHT22;25503;52.532;13.640;2023-06-10T10:41:38;24.80;99.90
39825;DHT22;25503;52.532;13.640;2023-06-10T10:44:06;24.80;99.90
39825;DHT22;25503;52.532;13.640;2023-06-10T10:46:48;24.70;99.90
39825;DHT22;25503;52.532;13.640;2023-06-10T10:49:15;24.70;99.90
39825;DHT22;25503;52.532;13.640;2023-06-10T10:51:57;24.70;99.90
39825;DHT22;25503;52.532;13.640;2023-06-10T10:54:30;24.70;99.90
39825;DHT22;25503;52.532;13.640;2023-06-10T10:57:19;24.80;99.90
39825;DHT22;25503;52.532;13.640;2023-06-10T11:02:41;25.20;99.90
39825;DHT22;25503;52.532;13.640;2023-06-10T11:05:16;25.40;99.90
39825;DHT22;25503;52.532;13.640;2023-06-10T11:07:52;25.50;99.90
39825;DHT22;25503;52.532;13.640;2023-06-10T11:10:29;25.70;99.90
39825;DHT22;25503;52.532;13.640;2023-06-10T11:12:55;25.80;99.90
39825;DHT22;25503;52.532;13.640;2023-06-10T11:15:26;25.90;99.90
39825;DHT22;25503;52.532;13.640;2023-06-10T11:18:26;26.00;99.90
39825;DHT22;25503;52.532;13.640;2023-06-10T11:26:14;25.80;99.90
39825;DHT22;25503;52.532;13.640;2023-06-10T11:33:53;26.10;99.90
39825;DHT22;25503;52.532;13.640;2023-06-10T11:36:20;26.20;99.90
39825;DHT22;25503;52.532;13.640;2023-06-10T11:38:45;26.40;99.90
39825;DHT22;25503;52.532;13.640;2023-06-10T11:41:12;26.40;99.90
39825;DHT22;25503;52.532;13.640;2023-06-10T11:43:45;26.50;99.90
39825;DHT22;25503;52.532;13.640;2023-06-10T11:46:12;26.60;99.90
39825;DHT22;25503;52.532;13.640;2023-06-10T11:48:37;26.80;99.90
39825;DHT22;25503;52.532;13.640;2023-06-10T11:51:07;26.80;99.90
39825;DHT22;25503;52.532;13.640;2023-06-10T11:53:33;27.00;99.90
39825;DHT22;25503;52.532;13.640;2023-06-10T11:55:59;27.10;99.90
39825;DHT22;25503;52.532;13.640;2023-06-10T11:58:24;27.20;99.90
39825;DHT22;25503;52.532;13.640;2023-06-10T12:00:52;27.20;99.90
39825;DHT22;25503;52.532;13.640;2023-06-10T12:03:24;27.30;99.90
39825;DHT22;25503;52.532;13.640;2023-06-10T12:05:55;27.40;99.90
39825;DHT22;25503;52.532;13.640;2023-06-10T12:08:21;27.40;99.90
39825;DHT22;25503;52.532;13.640;2023-06-10T12:10:47;27.40;99.90
39825;DHT22;25503;52.532;13.640;2023-06-10T12:13:12;27.50;99.90
39825;DHT22;25503;52.532;13.640;2023-06-10T12:15:38;27.50;99.90
39825;DHT22;25503;52.532;13.640;2023-06-10T12:18:04;27.60;99.90
39825;DHT22;25503;52.532;13.640;2023-06-10T12:20:31;27.80;99.90
39825;DHT22;25503;52.532;13.640;2023-06-10T12:22:59;27.90;99.90
39825;DHT22;25503;52.532;13.640;2023-06-10T12:25:27;27.90;99.90
39825;DHT22;25503;52.532;13.640;2023-06-10T12:27:54;27.80;99.90
39825;DHT22;25503;52.532;13.640;2023-06-10T12:30:24;27.90;99.90
39825;DHT22;25503;52.532;13.640;2023-06-10T12:32:52;28.00;99.90
39825;DHT22;25503;52.532;13.640;2023-06-10T12:35:20;28.00;99.90
39825;DHT22;25503;52.532;13.640;2023-06-10T12:37:59;28.00;99.90
39825;DHT22;25503;52.532;13.640;2023-06-10T12:40:37;28.10;99.90
39825;DHT22;25503;52.532;13.640;2023-06-10T12:43:05;28.20;99.90
39825;DHT22;25503;52.532;13.640;2023-06-10T12:45:34;28.30;99.90
39825;DHT22;25503;52.532;13.640;2023-06-10T12:50:42;28.40;99.90
39825;DHT22;25503;52.532;13.640;2023-06-10T12:53:09;28.50;99.90
39825;DHT22;25503;52.532;13.640;2023-06-10T12:55:35;28.60;99.90
39825;DHT22;25503;52.532;13.640;2023-06-10T12:58:01;28.70;99.90
39825;DHT22;25503;52.532;13.640;2023-06-10T13:00:27;28.70;99.90
39825;DHT22;25503;52.532;13.640;2023-06-10T13:03:01;28.70;99.90
39825;DHT22;25503;52.532;13.640;2023-06-10T13:05:28;28.80;99.90
39825;DHT22;25503;52.532;13.640;2023-06-10T13:07:54;28.90;99.90
39825;DHT22;25503;52.532;13.640;2023-06-10T13:10:20;28.90;99.90
39825;DHT22;25503;52.532;13.640;2023-06-10T13:12:46;28.80;99.90
39825;DHT22;25503;52.532;13.640;2023-06-10T13:15:12;28.70;99.90
39825;DHT22;25503;52.532;13.640;2023-06-10T13:17:38;28.60;99.90
39825;DHT22;25503;52.532;13.640;2023-06-10T13:20:05;28.50;99.90
39825;DHT22;25503;52.532;13.640;2023-06-10T13:22:32;28.40;99.90
39825;DHT22;25503;52.532;13.640;2023-06-10T13:25:07;28.30;99.90
39825;DHT22;25503;52.532;13.640;2023-06-10T13:27:34;28.50;99.90
39825;DHT22;25503;52.532;13.640;2023-06-10T13:30:00;28.50;99.90
39825;DHT22;25503;52.532;13.640;2023-06-10T13:32:25;28.40;99.90
39825;DHT22;25503;52.532;13.640;2023-06-10T13:34:51;28.30;99.90
39825;DHT22;25503;52.532;13.640;2023-06-10T13:37:18;28.30;99.80
39825;DHT22;25503;52.532;13.640;2023-06-10T13:39:44;28.20;99.80
39825;DHT22;25503;52.532;13.640;2023-06-10T13:42:12;28.30;99.90
39825;DHT22;25503;52.532;13.640;2023-06-10T13:44:38;28.40;99.90
39825;DHT22;25503;52.532;13.640;2023-06-10T13:47:03;28.50;99.90
39825;DHT22;25503;52.532;13.640;2023-06-10T13:49:29;28.50;99.90
39825;DHT22;25503;52.532;13.640;2023-06-10T13:51:55;28.50;99.90
39825;DHT22;25503;52.532;13.640;2023-06-10T13:54:20;28.50;99.90
39825;DHT22;25503;52.532;13.640;2023-06-10T13:56:46;28.60;99.90
39825;DHT22;25503;52.532;13.640;2023-06-10T13:59:12;28.60;99.90
39825;DHT22;25503;52.532;13.640;2023-06-10T14:01:38;28.50;99.90
39825;DHT22;25503;52.532;13.640;2023-06-10T14:04:04;28.40;99.90
39825;DHT22;25503;52.532;13.640;2023-06-10T14:06:29;28.40;99.90
39825;DHT22;25503;52.532;13.640;2023-06-10T14:08:56;28.30;99.90
39825;DHT22;25503;52.532;13.640;2023-06-10T14:11:21;28.20;99.90
39825;DHT22;25503;52.532;13.640;2023-06-10T14:13:47;28.20;99.90
39825;DHT22;25503;52.532;13.640;2023-06-10T14:16:14;28.10;99.90
39825;DHT22;25503;52.532;13.640;2023-06-10T14:18:39;28.00;99.90
39825;DHT22;25503;52.532;13.640;2023-06-10T14:21:05;28.00;99.90
39825;DHT22;25503;52.532;13.640;2023-06-10T14:23:30;28.00;99.90
39825;DHT22;25503;52.532;13.640;2023-06-10T14:25:56;28.00;99.90
39825;DHT22;25503;52.532;13.640;2023-06-10T14:28:21;28.00;99.90
39825;DHT22;25503;52.532;13.640;2023-06-10T14:30:47;28.00;99.90
39825;DHT22;25503;52.532;13.640;2023-06-10T14:33:13;28.00;99.90
39825;DHT22;25503;52.532;13.640;2023-06-10T14:35:39;28.00;99.90
39825;DHT22;25503;52.532;13.640;2023-06-10T14:38:05;28.00;99.90
39825;DHT22;25503;52.532;13.640;2023-06-10T14:40:30;28.00;99.90
39825;DHT22;25503;52.532;13.640;2023-06-10T14:42:57;28.10;99.90
39825;DHT22;25503;52.532;13.640;2023-06-10T14:45:22;28.20;99.90
39825;DHT22;25503;52.532;13.640;2023-06-10T14:47:49;28.20;99.90
39825;DHT22;25503;52.532;13.640;2023-06-10T14:50:15;28.20;99.30
39825;DHT22;25503;52.532;13.640;2023-06-10T14:52:40;28.30;98.80
39825;DHT22;25503;52.532;13.640;2023-06-10T14:55:06;28.30;98.30
39825;DHT22;25503;52.532;13.640;2023-06-10T14:57:32;28.40;96.90
39825;DHT22;25503;52.532;13.640;2023-06-10T14:59:57;28.30;96.90
39825;DHT22;25503;52.532;13.640;2023-06-10T15:02:23;28.30;96.10
39825;DHT22;25503;52.532;13.640;2023-06-10T15:04:49;28.20;96.50
39825;DHT22;25503;52.532;13.640;2023-06-10T15:07:14;28.10;96.20
39825;DHT22;25503;52.532;13.640;2023-06-10T15:09:41;28.10;96.40
39825;DHT22;25503;52.532;13.640;2023-06-10T15:12:08;28.00;95.80
39825;DHT22;25503;52.532;13.640;2023-06-10T15:14:33;27.90;95.90
39825;DHT22;25503;52.532;13.640;2023-06-10T15:16:59;27.90;95.80
39825;DHT22;25503;52.532;13.640;2023-06-10T15:19:26;27.90;95.40
39825;DHT22;25503;52.532;13.640;2023-06-10T15:21:52;28.00;96.10
39825;DHT22;25503;52.532;13.640;2023-06-10T15:24:18;28.00;96.10
39825;DHT22;25503;52.532;13.640;2023-06-10T15:26:43;28.10;94.90
39825;DHT22;25503;52.532;13.640;2023-06-10T15:29:09;28.10;94.70
39825;DHT22;25503;52.532;13.640;2023-06-10T15:31:35;28.20;95.20
39825;DHT22;25503;52.532;13.640;2023-06-10T15:34:01;28.20;94.20